sensor_id;sensor_type;location;lat;lon;timestamp;temperature;humidity
40255;DHT22;25973;52.368;4.940;2023-02-04T00:00:47;9.60;99.90
40255;DHT22;25973;52.368;4.940;2023-02-04T00:03:16;9.60;99.90
40255;DHT22;25973;52.368;4.940;2023-02-04T00:05:42;9.50;99.90
40255;DHT22;25973;52.368;4.940;2023-02-04T00:08:08;9.40;99.90
40255;DHT22;25973;52.368;4.940;2023-02-04T00:10:35;9.40;99.90
40255;DHT22;25973;52.368;4.940;2023-02-04T00:13:01;9.40;99.90
40255;DHT22;25973;52.368;4.940;2023-02-04T00:15:27;9.40;99.90
40255;DHT22;25973;52.368;4.940;2023-02-04T00:17:52;9.40;99.90
40255;DHT22;25973;52.368;4.940;2023-02-04T00:20:18;9.40;99.90
40255;DHT22;25973;52.368;4.940;2023-02-04T00:22:46;9.40;99.90
40255;DHT22;25973;52.368;4.940;2023-02-04T00:25:12;9.40;99.90
40255;DHT22;25973;52.368;4.940;2023-02-04T00:27:38;9.40;99.90
40255;DHT22;25973;52.368;4.940;2023-02-04T00:30:04;9.30;99.90
40255;DHT22;25973;52.368;4.940;2023-02-04T00:32:30;9.40;99.90
40255;DHT22;25973;52.368;4.940;2023-02-04T00:34:55;9.30;99.90
40255;DHT22;25973;52.368;4.940;2023-02-04T00:37:21;9.40;99.90
40255;DHT22;25973;52.368;4.940;2023-02-04T00:39:46;9.30;99.90
40255;DHT22;25973;52.368;4.940;2023-02-04T00:42:12;9.30;99.90
40255;DHT22;25973;52.368;4.940;2023-02-04T00:44:38;9.30;99.90
40255;DHT22;25973;52.368;4.940;2023-02-04T00:47:04;9.30;99.90
40255;DHT22;25973;52.368;4.940;2023-02-04T00:49:29;9.30;99.90
40255;DHT22;25973;52.368;4.940;2023-02-04T00:51:55;9.30;99.90
40255;DHT22;25973;52.368;4.940;2023-02-04T00:54:20;9.20;99.90
40255;DHT22;25973;52.368;4.940;2023-02-04T00:56:46;9.30;99.90
40255;DHT22;25973;52.368;4.940;2023-02-04T00:59:11;9.20;99.90
40255;DHT22;25973;52.368;4.940;2023-02-04T01:01:37;9.20;99.90
40255;DHT22;25973;52.368;4.940;2023-02-04T01:04:03;9.20;99.90
40255;DHT22;25973;52.368;4.940;2023-02-04T01:06:29;9.20;99.90
40255;DHT22;25973;52.368;4.940;2023-02-04T01:08:54;9.20;99.90
40255;DHT22;25973;52.368;4.940;2023-02-04T01:11:20;9.20;99.90
40255;DHT22;25973;52.368;4.940;2023-02-04T01:13:45;9.20;99.90
40255;DHT22;25973;52.368;4.940;2023-02-04T01:16:12;9.10;99.90
40255;DHT22;25973;52.368;4.940;2023-02-04T01:18:38;9.10;99.90
40255;DHT22;25973;52.368;4.940;2023-02-04T01:21:03;9.20;99.90
40255;DHT22;25973;52.368;4.940;2023-02-04T01:23:29;9.20;99.90
40255;DHT22;25973;52.368;4.940;2023-02-04T01:25:55;9.10;99.90
40255;DHT22;25973;52.368;4.940;2023-02-04T01:28:21;9.20;99.90
40255;DHT22;25973;52.368;4.940;2023-02-04T01:30:46;9.20;99.90
40255;DHT22;25973;52.368;4.940;2023-02-04T01:33:12;9.20;99.90
40255;DHT22;25973;52.368;4.940;2023-02-04T01:35:37;9.20;99.90
40255;DHT22;25973;52.368;4.940;2023-02-04T01:38:03;9.20;99.90
40255;DHT22;25973;52.368;4.940;2023-02-04T01:40:29;9.20;99.90
40255;DHT22;25973;52.368;4.940;2023-02-04T01:42:55;9.20;99.90
40255;DHT22;25973;52.368;4.940;2023-02-04T01:45:20;9.20;99.90
40255;DHT22;25973;52.368;4.940;2023-02-04T01:47:46;9.30;99.90
40255;DHT22;25973;52.368;4.940;2023-02-04T01:50:14;9.20;99.90
40255;DHT22;25973;52.368;4.940;2023-02-04T01:52:40;9.30;99.90
40255;DHT22;25973;52.368;4.940;2023-02-04T01:55:27;9.30;99.90
40255;DHT22;25973;52.368;4.940;2023-02-04T01:57:53;9.30;99.90
40255;DHT22;25973;52.368;4.940;2023-02-04T02:00:31;9.30;99.90
40255;DHT22;25973;52.368;4.940;2023-02-04T02:02:58;9.30;99.90
40255;DHT22;25973;52.368;4.940;2023-02-04T02:05:32;9.30;99.90
40255;DHT22;25973;52.368;4.940;2023-02-04T02:08:01;9.30;99.90
40255;DHT22;25973;52.368;4.940;2023-02-04T02:10:28;9.30;99.90
40255;DHT22;25973;52.368;4.940;2023-02-04T02:12:54;9.30;99.90
40255;DHT22;25973;52.368;4.940;2023-02-04T02:15:20;9.30;99.90
40255;DHT22;25973;52.368;4.940;2023-02-04T02:17:46;9.30;99.90
40255;DHT22;25973;52.368;4.940;2023-02-04T02:20:14;9.30;99.90
40255;DHT22;25973;52.368;4.940;2023-02-04T02:23:16;9.30;99.90
40255;DHT22;25973;52.368;4.940;2023-02-04T02:25:43;9.30;99.90
40255;DHT22;25973;52.368;4.940;2023-02-04T02:28:13;9.30;99.90
40255;DHT22;25973;52.368;4.940;2023-02-04T02:30:40;9.30;99.90
40255;DHT22;25973;52.368;4.940;2023-02-04T02:33:06;9.30;99.90
40255;DHT22;25973;52.368;4.940;2023-02-04T02:35:32;9.30;99.90
40255;DHT22;25973;52.368;4.940;2023-02-04T02:37:58;9.30;99.90
40255;DHT22;25973;52.368;4.940;2023-02-04T02:40:24;9.30;99.90
40255;DHT22;25973;52.368;4.940;2023-02-04T02:42:51;9.40;99.90
40255;DHT22;25973;52.368;4.940;2023-02-04T02:45:26;9.40;99.90
40255;DHT22;25973;52.368;4.940;2023-02-04T02:47:52;9.40;99.90
40255;DHT22;25973;52.368;4.940;2023-02-04T02:50:25;9.40;99.90
40255;DHT22;25973;52.368;4.940;2023-02-04T02:52:51;9.40;99.90
40255;DHT22;25973;52.368;4.940;2023-02-04T02:55:19;9.40;99.90
40255;DHT22;25973;52.368;4.940;2023-02-04T02:57:47;9.40;99.90
40255;DHT22;25973;52.368;4.940;2023-02-04T03:00:22;9.40;99.90
40255;DHT22;25973;52.368;4.940;2023-02-04T03:02:58;9.40;99.90
40255;DHT22;25973;52.368;4.940;2023-02-04T03:05:26;9.40;99.90
40255;DHT22;25973;52.368;4.940;2023-02-04T03:07:52;9.40;99.90
40255;DHT22;25973;52.368;4.940;2023-02-04T03:10:18;9.50;99.90
40255;DHT22;25973;52.368;4.940;2023-02-04T03:12:44;9.50;99.90
40255;DHT22;25973;52.368;4.940;2023-02-04T03:15:11;9.50;99.90
40255;DHT22;25973;52.368;4.940;2023-02-04T03:17:38;9.50;99.90
40255;DHT22;25973;52.368;4.940;2023-02-04T03:20:04;9.50;99.90
40255;DHT22;25973;52.368;4.940;2023-02-04T03:22:30;9.50;99.90
40255;DHT22;25973;52.368;4.940;2023-02-04T03:24:55;9.50;99.90
40255;DHT22;25973;52.368;4.940;2023-02-04T03:27:23;9.50;99.90
40255;DHT22;25973;52.368;4.940;2023-02-04T03:29:49;9.50;99.90
40255;DHT22;25973;52.368;4.940;2023-02-04T03:32:15;9.50;99.90
40255;DHT22;25973;52.368;4.940;2023-02-04T03:34:41;9.50;99.90
40255;DHT22;25973;52.368;4.940;2023-02-04T03:37:06;9.40;99.90
40255;DHT22;25973;52.368;4.940;2023-02-04T03:39:32;9.40;99.90
40255;DHT22;25973;52.368;4.940;2023-02-04T03:41:57;9.40;99.90
40255;DHT22;25973;52.368;4.940;2023-02-04T03:44:23;9.30;99.90
40255;DHT22;25973;52.368;4.940;2023-02-04T03:46:51;9.30;99.90
40255;DHT22;25973;52.368;4.940;2023-02-04T03:49:22;9.30;99.90
40255;DHT22;25973;52.368;4.940;2023-02-04T03:51:48;9.30;99.90
40255;DHT22;25973;52.368;4.940;2023-02-04T03:54:14;9.20;99.90
40255;DHT22;25973;52.368;4.940;2023-02-04T03:56:40;9.20;99.90
40255;DHT22;25973;52.368;4.940;2023-02-04T03:59:05;9.20;99.90
40255;DHT22;25973;52.368;4.940;2023-02-04T04:01:31;9.20;99.90
40255;DHT22;25973;52.368;4.940;2023-02-04T04:03:57;9.20;99.90
40255;DHT22;25973;52.368;4.940;2023-02-04T04:06:22;9.20;99.90
40255;DHT22;25973;52.368;4.940;2023-02-04T04:08:48;9.20;99.90
40255;DHT22;25973;52.368;4.940;2023-02-04T04:11:14;9.20;99.90
40255;DHT22;25973;52.368;4.940;2023-02-04T04:13:39;9.20;99.90
40255;DHT22;25973;52.368;4.940;2023-02-04T04:16:05;9.20;99.90
40255;DHT22;25973;52.368;4.940;2023-02-04T04:18:31;9.20;99.90
40255;DHT22;25973;52.368;4.940;2023-02-04T04:20:57;9.20;99.90
40255;DHT22;25973;52.368;4.940;2023-02-04T04:23:23;9.20;99.90
40255;DHT22;25973;52.368;4.940;2023-02-04T04:25:49;9.20;99.90
40255;DHT22;25973;52.368;4.940;2023-02-04T04:28:15;9.20;99.90
40255;DHT22;25973;52.368;4.940;2023-02-04T04:30:40;9.20;99.90
40255;DHT22;25973;52.368;4.940;2023-02-04T04:33:06;9.20;99.90
40255;DHT22;25973;52.368;4.940;2023-02-04T04:35:32;9.20;99.90
40255;DHT22;25973;52.368;4.940;2023-02-04T04:37:59;9.20;99.90
40255;DHT22;25973;52.368;4.940;2023-02-04T04:40:25;9.20;99.90
40255;DHT22;25973;52.368;4.940;2023-02-04T04:42:50;9.20;99.90
40255;DHT22;25973;52.368;4.940;2023-02-04T04:45:16;9.20;99.90
40255;DHT22;25973;52.368;4.940;2023-02-04T04:47:42;9.20;99.90
40255;DHT22;25973;52.368;4.940;2023-02-04T04:50:07;9.30;99.90
40255;DHT22;25973;52.368;4.940;2023-02-04T04:52:33;9.30;99.90
40255;DHT22;25973;52.368;4.940;2023-02-04T04:54:59;9.30;99.90
40255;DHT22;25973;52.368;4.940;2023-02-04T04:57:24;9.30;99.90
40255;DHT22;25973;52.368;4.940;2023-02-04T04:59:50;9.40;99.90
40255;DHT22;25973;52.368;4.940;2023-02-04T05:02:15;9.40;99.90
40255;DHT22;25973;52.368;4.940;2023-02-04T05:04:41;9.40;99.90
40255;DHT22;25973;52.368;4.940;2023-02-04T05:07:06;9.40;99.90
40255;DHT22;25973;52.368;4.940;2023-02-04T05:09:32;9.40;99.90
40255;DHT22;25973;52.368;4.940;2023-02-04T05:11:58;9.30;99.90
40255;DHT22;25973;52.368;4.940;2023-02-04T05:14:23;9.40;99.90
40255;DHT22;25973;52.368;4.940;2023-02-04T05:16:49;9.30;99.90
40255;DHT22;25973;52.368;4.940;2023-02-04T05:19:14;9.30;99.90
40255;DHT22;25973;52.368;4.940;2023-02-04T05:21:40;9.40;99.90
40255;DHT22;25973;52.368;4.940;2023-02-04T05:24:05;9.40;99.90
40255;DHT22;25973;52.368;4.940;2023-02-04T05:26:31;9.40;99.90
40255;DHT22;25973;52.368;4.940;2023-02-04T05:28:58;9.40;99.90
40255;DHT22;25973;52.368;4.940;2023-02-04T05:31:26;9.50;99.90
40255;DHT22;25973;52.368;4.940;2023-02-04T05:33:52;9.50;99.90
40255;DHT22;25973;52.368;4.940;2023-02-04T05:36:19;9.50;99.90
40255;DHT22;25973;52.368;4.940;2023-02-04T05:38:44;9.50;99.90
40255;DHT22;25973;52.368;4.940;2023-02-04T05:41:10;9.50;99.90
40255;DHT22;25973;52.368;4.940;2023-02-04T05:43:35;9.50;99.90
40255;DHT22;25973;52.368;4.940;2023-02-04T05:46:01;9.50;99.90
40255;DHT22;25973;52.368;4.940;2023-02-04T05:48:27;9.50;99.90
40255;DHT22;25973;52.368;4.940;2023-02-04T05:50:52;9.50;99.90
40255;DHT22;25973;52.368;4.940;2023-02-04T05:53:18;9.50;99.90
40255;DHT22;25973;52.368;4.940;2023-02-04T05:55:44;9.50;99.90
40255;DHT22;25973;52.368;4.940;2023-02-04T05:58:09;9.50;99.90
40255;DHT22;25973;52.368;4.940;2023-02-04T06:00:35;9.50;99.90
40255;DHT22;25973;52.368;4.940;2023-02-04T06:03:00;9.50;99.90
40255;DHT22;25973;52.368;4.940;2023-02-04T06:05:26;9.50;99.90
40255;DHT22;25973;52.368;4.940;2023-02-04T06:07:52;9.50;99.90
40255;DHT22;25973;52.368;4.940;2023-02-04T06:10:18;9.50;99.90
40255;DHT22;25973;52.368;4.940;2023-02-04T06:12:45;9.60;99.90
40255;DHT22;25973;52.368;4.940;2023-02-04T06:15:11;9.50;99.90
40255;DHT22;25973;52.368;4.940;2023-02-04T06:17:37;9.50;99.90
40255;DHT22;25973;52.368;4.940;2023-02-04T06:20:04;9.60;99.90
40255;DHT22;25973;52.368;4.940;2023-02-04T06:22:29;9.60;99.90
40255;DHT22;25973;52.368;4.940;2023-02-04T06:24:55;9.60;99.90
40255;DHT22;25973;52.368;4.940;2023-02-04T06:27:20;9.60;99.90
40255;DHT22;25973;52.368;4.940;2023-02-04T06:29:57;9.60;99.90
40255;DHT22;25973;52.368;4.940;2023-02-04T06:32:22;9.60;99.90
40255;DHT22;25973;52.368;4.940;2023-02-04T06:34:48;9.70;99.90
40255;DHT22;25973;52.368;4.940;2023-02-04T06:37:14;9.70;99.90
40255;DHT22;25973;52.368;4.940;2023-02-04T06:39:42;9.70;99.90
40255;DHT22;25973;52.368;4.940;2023-02-04T06:42:07;9.70;99.90
40255;DHT22;25973;52.368;4.940;2023-02-04T06:44:33;9.70;99.90
40255;DHT22;25973;52.368;4.940;2023-02-04T06:46:58;9.70;99.90
40255;DHT22;25973;52.368;4.940;2023-02-04T06:49:24;9.70;99.90
40255;DHT22;25973;52.368;4.940;2023-02-04T06:51:50;9.70;99.90
40255;DHT22;25973;52.368;4.940;2023-02-04T06:54:16;9.70;99.90
40255;DHT22;25973;52.368;4.940;2023-02-04T06:56:42;9.70;99.90
40255;DHT22;25973;52.368;4.940;2023-02-04T06:59:11;9.70;99.90
40255;DHT22;25973;52.368;4.940;2023-02-04T07:01:36;9.70;99.90
40255;DHT22;25973;52.368;4.940;2023-02-04T07:04:02;9.70;99.90
40255;DHT22;25973;52.368;4.940;2023-02-04T07:06:27;9.70;99.90
40255;DHT22;25973;52.368;4.940;2023-02-04T07:08:53;9.70;99.90
40255;DHT22;25973;52.368;4.940;2023-02-04T07:11:18;9.70;99.90
40255;DHT22;25973;52.368;4.940;2023-02-04T07:13:44;9.70;99.90
40255;DHT22;25973;52.368;4.940;2023-02-04T07:16:10;9.70;99.90
40255;DHT22;25973;52.368;4.940;2023-02-04T07:18:35;9.70;99.90
40255;DHT22;25973;52.368;4.940;2023-02-04T07:21:01;9.70;99.90
40255;DHT22;25973;52.368;4.940;2023-02-04T07:23:26;9.70;99.90
40255;DHT22;25973;52.368;4.940;2023-02-04T07:25:53;9.70;99.90
40255;DHT22;25973;52.368;4.940;2023-02-04T07:28:20;9.70;99.90
40255;DHT22;25973;52.368;4.940;2023-02-04T07:30:46;9.70;99.90
40255;DHT22;25973;52.368;4.940;2023-02-04T07:33:11;9.70;99.90
40255;DHT22;25973;52.368;4.940;2023-02-04T07:35:37;9.80;99.90
40255;DHT22;25973;52.368;4.940;2023-02-04T07:38:03;9.80;99.90
40255;DHT22;25973;52.368;4.940;2023-02-04T07:40:29;9.80;99.90
40255;DHT22;25973;52.368;4.940;2023-02-04T07:42:55;9.80;99.90
40255;DHT22;25973;52.368;4.940;2023-02-04T07:45:20;9.80;99.90
40255;DHT22;25973;52.368;4.940;2023-02-04T07:47:46;9.90;99.90
40255;DHT22;25973;52.368;4.940;2023-02-04T07:50:11;9.90;99.90
40255;DHT22;25973;52.368;4.940;2023-02-04T07:52:37;9.90;99.90
40255;DHT22;25973;52.368;4.940;2023-02-04T07:55:03;9.90;99.90
40255;DHT22;25973;52.368;4.940;2023-02-04T07:57:29;9.90;99.90
40255;DHT22;25973;52.368;4.940;2023-02-04T07:59:55;10.00;99.90
40255;DHT22;25973;52.368;4.940;2023-02-04T08:02:20;10.00;99.90
40255;DHT22;25973;52.368;4.940;2023-02-04T08:04:46;10.00;99.90
40255;DHT22;25973;52.368;4.940;2023-02-04T08:07:12;10.00;99.90
40255;DHT22;25973;52.368;4.940;2023-02-04T08:09:37;10.10;99.90
40255;DHT22;25973;52.368;4.940;2023-02-04T08:12:03;10.10;99.90
40255;DHT22;25973;52.368;4.940;2023-02-04T08:14:28;10.10;99.90
40255;DHT22;25973;52.368;4.940;2023-02-04T08:16:54;10.10;99.90
40255;DHT22;25973;52.368;4.940;2023-02-04T08:19:20;10.20;99.90
40255;DHT22;25973;52.368;4.940;2023-02-04T08:21:46;10.20;99.90
40255;DHT22;25973;52.368;4.940;2023-02-04T08:24:16;10.20;99.90
40255;DHT22;25973;52.368;4.940;2023-02-04T08:26:42;10.20;99.90
40255;DHT22;25973;52.368;4.940;2023-02-04T08:29:08;10.30;99.90
40255;DHT22;25973;52.368;4.940;2023-02-04T08:31:35;10.30;99.90
40255;DHT22;25973;52.368;4.940;2023-02-04T08:34:02;10.40;99.90
40255;DHT22;25973;52.368;4.940;2023-02-04T08:36:28;10.40;99.90
40255;DHT22;25973;52.368;4.940;2023-02-04T08:38:53;10.50;99.90
40255;DHT22;25973;52.368;4.940;2023-02-04T08:41:19;10.50;99.90
40255;DHT22;25973;52.368;4.940;2023-02-04T08:43:44;10.50;99.90
40255;DHT22;25973;52.368;4.940;2023-02-04T08:46:10;10.60;99.90
40255;DHT22;25973;52.368;4.940;2023-02-04T08:48:35;10.70;99.90
40255;DHT22;25973;52.368;4.940;2023-02-04T08:51:01;10.70;99.90
40255;DHT22;25973;52.368;4.940;2023-02-04T08:53:27;10.80;99.90
40255;DHT22;25973;52.368;4.940;2023-02-04T08:55:52;10.80;99.90
40255;DHT22;25973;52.368;4.940;2023-02-04T08:58:18;10.80;99.90
40255;DHT22;25973;52.368;4.940;2023-02-04T09:00:43;10.90;99.90
40255;DHT22;25973;52.368;4.940;2023-02-04T09:03:09;10.90;99.90
40255;DHT22;25973;52.368;4.940;2023-02-04T09:05:35;11.00;99.90
40255;DHT22;25973;52.368;4.940;2023-02-04T09:08:00;11.00;99.90
40255;DHT22;25973;52.368;4.940;2023-02-04T09:10:26;11.00;99.90
40255;DHT22;25973;52.368;4.940;2023-02-04T09:12:51;11.10;99.90
40255;DHT22;25973;52.368;4.940;2023-02-04T09:15:21;11.20;99.90
40255;DHT22;25973;52.368;4.940;2023-02-04T09:17:48;11.20;99.90
40255;DHT22;25973;52.368;4.940;2023-02-04T09:20:14;11.20;99.90
40255;DHT22;25973;52.368;4.940;2023-02-04T09:22:40;11.30;99.90
40255;DHT22;25973;52.368;4.940;2023-02-04T09:25:06;11.30;99.90
40255;DHT22;25973;52.368;4.940;2023-02-04T09:27:31;11.30;99.90
40255;DHT22;25973;52.368;4.940;2023-02-04T09:29:57;11.30;99.90
40255;DHT22;25973;52.368;4.940;2023-02-04T09:32:22;11.30;99.90
40255;DHT22;25973;52.368;4.940;2023-02-04T09:34:48;11.30;99.90
40255;DHT22;25973;52.368;4.940;2023-02-04T09:37:14;11.30;99.90
40255;DHT22;25973;52.368;4.940;2023-02-04T09:39:39;11.30;99.90
40255;DHT22;25973;52.368;4.940;2023-02-04T09:42:05;11.30;99.90
40255;DHT22;25973;52.368;4.940;2023-02-04T09:44:31;11.30;99.90
40255;DHT22;25973;52.368;4.940;2023-02-04T09:47:00;11.30;99.90
40255;DHT22;25973;52.368;4.940;2023-02-04T09:49:26;11.30;99.90
40255;DHT22;25973;52.368;4.940;2023-02-04T09:51:53;11.40;99.90
40255;DHT22;25973;52.368;4.940;2023-02-04T09:54:20;11.40;99.90
40255;DHT22;25973;52.368;4.940;2023-02-04T09:56:46;11.30;99.90
40255;DHT22;25973;52.368;4.940;2023-02-04T09:59:14;11.30;99.90
40255;DHT22;25973;52.368;4.940;2023-02-04T10:01:40;11.30;99.90
40255;DHT22;25973;52.368;4.940;2023-02-04T10:04:11;11.30;99.90
40255;DHT22;25973;52.368;4.940;2023-02-04T10:06:38;11.40;99.90
40255;DHT22;25973;52.368;4.940;2023-02-04T10:09:04;11.40;99.90
40255;DHT22;25973;52.368;4.940;2023-02-04T10:11:32;11.40;99.90
40255;DHT22;25973;52.368;4.940;2023-02-04T10:13:59;11.50;99.90
40255;DHT22;25973;52.368;4.940;2023-02-04T10:16:25;11.50;99.90
40255;DHT22;25973;52.368;4.940;2023-02-04T10:18:59;11.50;99.90
40255;DHT22;25973;52.368;4.940;2023-02-04T10:21:29;11.60;99.90
40255;DHT22;25973;52.368;4.940;2023-02-04T10:23:58;11.60;99.90
40255;DHT22;25973;52.368;4.940;2023-02-04T10:26:27;11.70;99.90
40255;DHT22;25973;52.368;4.940;2023-02-04T10:29:02;11.60;99.90
40255;DHT22;25973;52.368;4.940;2023-02-04T10:34:11;11.70;99.90
40255;DHT22;25973;52.368;4.940;2023-02-04T10:36:37;11.70;99.90
40255;DHT22;25973;52.368;4.940;2023-02-04T10:39:12;11.80;99.90
40255;DHT22;25973;52.368;4.940;2023-02-04T10:41:43;11.90;99.90
40255;DHT22;25973;52.368;4.940;2023-02-04T10:44:11;12.00;99.90
40255;DHT22;25973;52.368;4.940;2023-02-04T10:46:37;12.00;99.90
40255;DHT22;25973;52.368;4.940;2023-02-04T10:49:03;12.10;99.90
40255;DHT22;25973;52.368;4.940;2023-02-04T10:51:29;12.00;99.90
40255;DHT22;25973;52.368;4.940;2023-02-04T10:53:55;12.10;99.90
40255;DHT22;25973;52.368;4.940;2023-02-04T10:56:39;12.10;99.90
40255;DHT22;25973;52.368;4.940;2023-02-04T10:59:08;12.10;99.90
40255;DHT22;25973;52.368;4.940;2023-02-04T11:01:37;12.10;99.90
40255;DHT22;25973;52.368;4.940;2023-02-04T11:04:04;12.10;99.90
40255;DHT22;25973;52.368;4.940;2023-02-04T11:06:32;12.20;99.90
40255;DHT22;25973;52.368;4.940;2023-02-04T11:08:58;12.20;99.90
40255;DHT22;25973;52.368;4.940;2023-02-04T11:11:25;12.20;99.90
40255;DHT22;25973;52.368;4.940;2023-02-04T11:18:54;12.30;99.90
40255;DHT22;25973;52.368;4.940;2023-02-04T11:21:24;12.30;99.90
40255;DHT22;25973;52.368;4.940;2023-02-04T11:24:01;12.30;99.90
40255;DHT22;25973;52.368;4.940;2023-02-04T11:26:35;12.30;99.90
40255;DHT22;25973;52.368;4.940;2023-02-04T11:31:38;12.30;99.90
40255;DHT22;25973;52.368;4.940;2023-02-04T11:36:47;12.30;99.90
40255;DHT22;25973;52.368;4.940;2023-02-04T11:39:17;12.40;99.90
40255;DHT22;25973;52.368;4.940;2023-02-04T11:41:46;12.30;99.90
40255;DHT22;25973;52.368;4.940;2023-02-04T11:44:13;12.30;99.90
40255;DHT22;25973;52.368;4.940;2023-02-04T11:46:39;12.30;99.90
40255;DHT22;25973;52.368;4.940;2023-02-04T11:49:13;12.30;99.90
40255;DHT22;25973;52.368;4.940;2023-02-04T11:51:41;12.20;99.90
40255;DHT22;25973;52.368;4.940;2023-02-04T11:54:11;12.10;99.90
40255;DHT22;25973;52.368;4.940;2023-02-04T11:56:37;12.20;99.90
40255;DHT22;25973;52.368;4.940;2023-02-04T11:59:02;12.10;99.90
40255;DHT22;25973;52.368;4.940;2023-02-04T12:01:32;12.10;99.90
40255;DHT22;25973;52.368;4.940;2023-02-04T12:04:03;12.10;99.90
40255;DHT22;25973;52.368;4.940;2023-02-04T12:06:31;12.10;99.90
40255;DHT22;25973;52.368;4.940;2023-02-04T12:09:22;12.10;99.90
40255;DHT22;25973;52.368;4.940;2023-02-04T12:11:56;12.10;99.90
40255;DHT22;25973;52.368;4.940;2023-02-04T12:14:37;12.00;99.90
40255;DHT22;25973;52.368;4.940;2023-02-04T12:17:18;12.00;99.90
40255;DHT22;25973;52.368;4.940;2023-02-04T12:19:44;12.00;99.90
40255;DHT22;25973;52.368;4.940;2023-02-04T12:22:09;12.00;99.90
40255;DHT22;25973;52.368;4.940;2023-02-04T12:24:35;12.00;99.90
40255;DHT22;25973;52.368;4.940;2023-02-04T12:27:00;12.00;99.90
40255;DHT22;25973;52.368;4.940;2023-02-04T12:29:26;12.00;99.90
40255;DHT22;25973;52.368;4.940;2023-02-04T12:31:51;12.10;99.90
40255;DHT22;25973;52.368;4.940;2023-02-04T12:34:17;12.10;99.90
40255;DHT22;25973;52.368;4.940;2023-02-04T12:36:43;12.20;99.90
40255;DHT22;25973;52.368;4.940;2023-02-04T12:39:08;12.20;99.90
40255;DHT22;25973;52.368;4.940;2023-02-04T12:41:35;12.30;99.90
40255;DHT22;25973;52.368;4.940;2023-02-04T12:44:01;12.20;99.90
40255;DHT22;25973;52.368;4.940;2023-02-04T12:46:28;12.20;99.90
40255;DHT22;25973;52.368;4.940;2023-02-04T12:48:53;12.20;99.90
40255;DHT22;25973;52.368;4.940;2023-02-04T12:51:19;12.20;99.90
40255;DHT22;25973;52.368;4.940;2023-02-04T12:53:46;12.20;99.90
40255;DHT22;25973;52.368;4.940;2023-02-04T12:56:12;12.20;99.90
40255;DHT22;25973;52.368;4.940;2023-02-04T12:58:38;12.30;99.90
40255;DHT22;25973;52.368;4.940;2023-02-04T13:01:04;12.30;99.90
40255;DHT22;25973;52.368;4.940;2023-02-04T13:03:30;12.20;99.90
40255;DHT22;25973;52.368;4.940;2023-02-04T13:05:56;12.30;99.90
40255;DHT22;25973;52.368;4.940;2023-02-04T13:08:21;12.30;99.90
40255;DHT22;25973;52.368;4.940;2023-02-04T13:10:47;12.30;99.90
40255;DHT22;25973;52.368;4.940;2023-02-04T13:13:20;12.30;99.90
40255;DHT22;25973;52.368;4.940;2023-02-04T13:15:46;12.30;99.90
40255;DHT22;25973;52.368;4.940;2023-02-04T13:18:13;12.30;99.90
40255;DHT22;25973;52.368;4.940;2023-02-04T13:20:38;12.30;99.90
40255;DHT22;25973;52.368;4.940;2023-02-04T13:23:04;12.40;99.90
40255;DHT22;25973;52.368;4.940;2023-02-04T13:25:29;12.40;99.90
40255;DHT22;25973;52.368;4.940;2023-02-04T13:27:55;12.40;99.90
40255;DHT22;25973;52.368;4.940;2023-02-04T13:30:21;12.40;99.90
40255;DHT22;25973;52.368;4.940;2023-02-04T13:32:46;12.30;99.90
40255;DHT22;25973;52.368;4.940;2023-02-04T13:35:12;12.30;99.90
40255;DHT22;25973;52.368;4.940;2023-02-04T13:37:37;12.40;99.90
40255;DHT22;25973;52.368;4.940;2023-02-04T13:40:06;12.40;99.90
40255;DHT22;25973;52.368;4.940;2023-02-04T13:42:33;12.30;99.90
40255;DHT22;25973;52.368;4.940;2023-02-04T13:44:59;12.30;99.90
40255;DHT22;25973;52.368;4.940;2023-02-04T13:47:24;12.30;99.90
40255;DHT22;25973;52.368;4.940;2023-02-04T13:49:50;12.30;99.90
40255;DHT22;25973;52.368;4.940;2023-02-04T13:52:15;12.30;99.90
40255;DHT22;25973;52.368;4.940;2023-02-04T13:54:43;12.30;99.90
40255;DHT22;25973;52.368;4.940;2023-02-04T13:57:09;12.30;99.90
40255;DHT22;25973;52.368;4.940;2023-02-04T13:59:34;12.30;99.90
40255;DHT22;25973;52.368;4.940;2023-02-04T14:02:01;12.30;99.90
40255;DHT22;25973;52.368;4.940;2023-02-04T14:04:26;12.30;99.90
40255;DHT22;25973;52.368;4.940;2023-02-04T14:06:52;12.20;99.90
40255;DHT22;25973;52.368;4.940;2023-02-04T14:09:19;12.20;99.90
40255;DHT22;25973;52.368;4.940;2023-02-04T14:11:46;12.20;99.90
40255;DHT22;25973;52.368;4.940;2023-02-04T14:14:11;12.20;99.90
40255;DHT22;25973;52.368;4.940;2023-02-04T14:16:37;12.20;99.90
40255;DHT22;25973;52.368;4.940;2023-02-04T14:19:03;12.20;99.90
40255;DHT22;25973;52.368;4.940;2023-02-04T14:21:28;12.20;99.90
40255;DHT22;25973;52.368;4.940;2023-02-04T14:23:54;12.10;99.90
40255;DHT22;25973;52.368;4.940;2023-02-04T14:26:19;12.10;99.90
40255;DHT22;25973;52.368;4.940;2023-02-04T14:28:45;12.10;99.90
40255;DHT22;25973;52.368;4.940;2023-02-04T14:31:10;12.10;99.90
40255;DHT22;25973;52.368;4.940;2023-02-04T14:33:36;12.00;99.90
40255;DHT22;25973;52.368;4.940;2023-02-04T14:36:02;12.00;99.90
40255;DHT22;25973;52.368;4.940;2023-02-04T14:38:27;11.90;99.90
40255;DHT22;25973;52.368;4.940;2023-02-04T14:40:58;11.90;99.90
40255;DHT22;25973;52.368;4.940;2023-02-04T14:43:24;11.80;99.90
40255;DHT22;25973;52.368;4.940;2023-02-04T14:45:49;11.70;99.90
40255;DHT22;25973;52.368;4.940;2023-02-04T14:48:17;11.70;99.90
40255;DHT22;25973;52.368;4.940;2023-02-04T14:50:43;11.60;99.90
40255;DHT22;25973;52.368;4.940;2023-02-04T14:53:09;11.50;99.90
40255;DHT22;25973;52.368;4.940;2023-02-04T14:55:34;11.40;99.90
40255;DHT22;25973;52.368;4.940;2023-02-04T14:58:00;11.30;99.90
40255;DHT22;25973;52.368;4.940;2023-02-04T15:00:26;11.20;99.90
40255;DHT22;25973;52.368;4.940;2023-02-04T15:02:51;11.20;99.90
40255;DHT22;25973;52.368;4.940;2023-02-04T15:05:17;11.10;99.90
40255;DHT22;25973;52.368;4.940;2023-02-04T15:07:43;11.20;99.90
40255;DHT22;25973;52.368;4.940;2023-02-04T15:10:10;11.20;99.90
40255;DHT22;25973;52.368;4.940;2023-02-04T15:12:36;11.20;99.90
40255;DHT22;25973;52.368;4.940;2023-02-04T15:15:02;11.10;99.90
40255;DHT22;25973;52.368;4.940;2023-02-04T15:17:28;11.20;99.90
40255;DHT22;25973;52.368;4.940;2023-02-04T15:19:53;11.20;99.90
40255;DHT22;25973;52.368;4.940;2023-02-04T15:22:19;11.20;99.90
40255;DHT22;25973;52.368;4.940;2023-02-04T15:24:44;11.20;99.90
40255;DHT22;25973;52.368;4.940;2023-02-04T15:27:10;11.20;99.90
40255;DHT22;25973;52.368;4.940;2023-02-04T15:29:35;11.20;99.90
40255;DHT22;25973;52.368;4.940;2023-02-04T15:32:01;11.20;99.90
40255;DHT22;25973;52.368;4.940;2023-02-04T15:34:26;11.20;99.90
40255;DHT22;25973;52.368;4.940;2023-02-04T15:36:52;11.30;99.90
40255;DHT22;25973;52.368;4.940;2023-02-04T15:39:18;11.30;99.90
40255;DHT22;25973;52.368;4.940;2023-02-04T15:41:43;11.20;99.90
40255;DHT22;25973;52.368;4.940;2023-02-04T15:44:09;11.20;99.90
40255;DHT22;25973;52.368;4.940;2023-02-04T15:46:35;11.20;99.90